Time;durP1;ratioP1;P1;durP2;ratioP2;P2;SDS_P1;SDS_P2;PMS_P1;PMS_P2;Temp;Humidity;BMP_temperature;BMP_pressure;BME280_temperature;BME280_humidity;BME280_pressure;Samples;Min_cycle;Max_cycle;Signal;HPM_P1;HPM_P2
2021/04/12 00:02:37;;;;;;;3.17;2.60;;;7.90;99.90;;;5.50;100.00;100360.06;4961160;28;57667;-62
2021/04/12 00:05:54;;;;;;;2.80;2.60;;;7.90;99.90;;;5.34;100.00;100372.88;4962632;28;60041;-60
2021/04/12 00:09:13;;;;;;;3.23;3.00;;;7.90;99.90;;;5.27;100.00;100372.53;4962947;28;57530;-60
2021/04/12 00:12:54;;;;;;;3.20;2.90;;;7.80;99.90;;;5.13;100.00;100380.75;4958553;28;56436;-59
2021/04/12 00:20:03;;;;;;;2.90;2.70;;;7.60;99.90;;;5.16;100.00;100390.28;4957535;28;63682;-60
2021/04/12 00:23:22;;;;;;;3.93;2.80;;;7.60;99.90;;;5.02;100.00;100386.06;4953375;28;65891;-60
2021/04/12 00:26:42;;;;;;;3.10;2.80;;;7.50;99.90;;;5.02;100.00;100394.84;4949874;28;75273;-60
2021/04/12 00:30:01;;;;;;;3.40;3.10;;;7.50;99.90;;;4.94;100.00;100388.47;4953059;28;72303;-61
2021/04/12 00:33:18;;;;;;;3.63;3.27;;;7.50;99.90;;;4.94;100.00;100388.47;4952750;28;68662;-61
2021/04/12 00:36:41;;;;;;;3.40;3.10;;;7.40;99.90;;;4.76;100.00;100389.88;4957084;28;64645;-62
2021/04/12 00:40:00;;;;;;;4.50;3.30;;;7.40;99.90;;;4.78;100.00;100385.31;4952168;28;72832;-62
2021/04/12 00:43:45;;;;;;;3.53;3.23;;;7.30;99.90;;;4.60;100.00;100388.41;4956596;28;69530;-60
2021/04/12 00:47:05;;;;;;;3.60;3.30;;;7.20;99.90;;;4.70;100.00;100401.78;4890622;28;73060;-61
2021/04/12 00:54:15;;;;;;;2.80;2.60;;;7.20;99.90;;;4.63;100.00;100417.34;4954212;28;65806;-60
2021/04/12 00:57:40;;;;;;;2.97;2.77;;;7.20;99.90;;;4.60;100.00;100408.75;4951144;28;87472;-61
2021/04/12 01:00:57;;;;;;;2.57;2.37;;;7.10;99.90;;;4.50;100.00;100399.84;4951971;28;79022;-60
2021/04/12 01:08:21;;;;;;;2.60;2.40;;;7.10;99.90;;;4.17;100.00;100404.06;4944085;28;73934;-61
2021/04/12 01:12:08;;;;;;;3.23;2.63;;;7.00;99.90;;;4.21;100.00;100417.91;4931755;28;81639;-61
2021/04/12 01:15:49;;;;;;;4.03;2.63;;;6.90;99.90;;;4.23;100.00;100435.38;4901475;28;92346;-60
2021/04/12 01:23:31;;;;;;;2.87;2.67;;;6.70;99.90;;;4.11;100.00;100443.41;4867136;28;87123;-61
2021/04/12 01:27:10;;;;;;;3.37;3.07;;;6.70;99.90;;;4.14;100.00;100437.88;4889117;28;94568;-60
2021/04/12 01:30:46;;;;;;;3.47;2.80;;;6.70;99.90;;;4.03;100.00;100443.13;4918435;28;83196;-60
2021/04/12 01:41:25;;;;;;;3.10;2.90;;;6.50;99.90;;;3.87;100.00;100460.13;4913968;28;83953;-60
2021/04/12 01:44:19;;;;;;;4.57;3.10;;;6.40;99.90;;;3.75;100.00;100465.44;4949723;28;85343;-61
2021/04/12 01:47:01;;;;;;;4.30;3.23;;;6.40;99.90;;;3.81;100.00;100465.88;4943639;28;83279;-59
2021/04/12 01:49:47;;;;;;;3.63;3.23;;;6.30;99.90;;;3.95;100.00;100478.13;4944434;28;72600;-60
2021/04/12 01:52:35;;;;;;;2.77;2.57;;;6.30;99.90;;;3.82;100.00;100466.72;4960730;28;64351;-61
2021/04/12 01:55:26;;;;;;;3.60;3.30;;;6.30;99.90;;;3.74;100.00;100482.28;4956882;28;65148;-62
2021/04/12 01:58:34;;;;;;;3.47;3.20;;;6.30;99.90;;;3.70;100.00;100480.84;4954375;28;83128;-60
2021/04/12 02:01:53;;;;;;;3.60;2.90;;;6.30;99.90;;;3.73;100.00;100473.50;4957937;28;71992;-61
2021/04/12 02:04:46;;;;;;;3.10;2.90;;;6.30;99.90;;;3.84;100.00;100481.50;4874786;28;81764;-61
2021/04/12 02:07:35;;;;;;;3.33;3.03;;;6.30;99.90;;;3.81;100.00;100487.03;4954132;28;65907;-59
2021/04/12 02:10:46;;;;;;;3.10;2.90;;;6.30;99.90;;;3.74;100.00;100485.78;4956411;28;74531;-61
2021/04/12 02:13:34;;;;;;;2.30;2.10;;;6.30;99.90;;;3.79;100.00;100496.03;4959523;28;68796;-60
2021/04/12 02:16:20;;;;;;;2.90;2.70;;;6.20;99.90;;;3.81;100.00;100491.50;4963928;28;61951;-61
2021/04/12 02:19:19;;;;;;;2.50;2.30;;;6.30;99.90;;;3.84;100.00;100496.53;4966778;28;48192;-60
2021/04/12 02:22:03;;;;;;;2.93;2.53;;;6.30;99.90;;;3.71;100.00;100496.56;4961232;28;53981;-61
2021/04/12 02:24:36;;;;;;;3.93;2.60;;;6.30;99.90;;;3.71;100.00;100517.75;4962023;28;58235;-60
2021/04/12 02:27:11;;;;;;;2.87;2.67;;;6.20;99.90;;;3.61;100.00;100514.06;4958052;28;56563;-62
2021/04/12 02:29:56;;;;;;;2.77;2.50;;;6.20;99.90;;;3.67;100.00;100520.75;4955088;28;77050;-62
2021/04/12 02:32:54;;;;;;;3.07;2.30;;;6.20;99.90;;;3.64;100.00;100519.16;4949517;28;60296;-61
2021/04/12 02:35:36;;;;;;;2.47;2.27;;;6.20;99.90;;;3.63;100.00;100525.41;4935016;28;70408;-61
2021/04/12 02:38:34;;;;;;;2.90;2.57;;;6.20;99.90;;;3.50;100.00;100522.75;4944994;28;62742;-61
2021/04/12 02:41:30;;;;;;;2.50;2.30;;;6.20;99.90;;;3.43;100.00;100534.75;4944192;28;72897;-62
2021/04/12 02:44:17;;;;;;;2.70;2.50;;;6.10;99.90;;;3.51;100.00;100526.25;4946289;28;61343;-61
2021/04/12 02:47:34;;;;;;;2.50;2.30;;;6.10;99.90;;;3.46;100.00;100531.03;4936817;28;60953;-61
2021/04/12 02:50:18;;;;;;;3.17;2.90;;;6.10;99.90;;;3.42;100.00;100530.41;4944915;28;64477;-60
2021/04/12 02:53:05;;;;;;;2.63;2.43;;;6.00;99.90;;;3.47;100.00;100532.69;4948755;28;61026;-61
2021/04/12 02:55:58;;;;;;;3.23;2.50;;;6.00;99.90;;;3.43;100.00;100533.88;4952484;28;60658;-59
2021/04/12 02:59:22;;;;;;;2.63;2.43;;;6.00;99.90;;;3.32;100.00;100536.44;4955818;28;56996;-61
2021/04/12 03:02:40;;;;;;;3.47;2.87;;;6.00;99.90;;;3.26;100.00;100548.28;4888482;28;58058;-61
2021/04/12 03:05:39;;;;;;;2.93;2.73;;;6.00;99.90;;;3.38;100.00;100547.41;4898339;28;57494;-60
2021/04/12 03:08:53;;;;;;;3.40;2.77;;;5.90;99.90;;;3.43;100.00;100550.63;4952059;28;56230;-59
2021/04/12 03:12:00;;;;;;;3.10;2.83;;;5.90;99.90;;;3.31;100.00;100554.09;4957518;28;52863;-61
2021/04/12 03:15:28;;;;;;;2.70;2.50;;;5.90;99.90;;;3.41;100.00;100556.94;4961421;28;57685;-61
2021/04/12 03:18:17;;;;;;;3.03;2.83;;;5.90;99.90;;;3.44;100.00;100559.41;4918144;28;61945;-61
2021/04/12 03:21:11;;;;;;;3.30;3.00;;;5.90;99.90;;;3.19;100.00;100558.44;4953570;28;67988;-61
2021/04/12 03:23:51;;;;;;;3.07;2.80;;;5.90;99.90;;;3.16;100.00;100568.38;4942051;28;84955;-59
2021/04/12 03:26:36;;;;;;;3.53;3.23;;;5.90;99.90;;;3.07;100.00;100569.00;4935989;28;87968;-60
2021/04/12 03:29:28;;;;;;;3.10;2.80;;;5.80;99.90;;;2.99;100.00;100566.84;4938325;28;84579;-60
2021/04/12 03:32:41;;;;;;;3.57;2.83;;;5.70;99.90;;;3.13;100.00;100580.00;4936146;28;91517;-60
2021/04/12 03:35:15;;;;;;;4.60;2.60;;;5.70;99.90;;;3.06;100.00;100575.22;4933925;28;90750;-60
2021/04/12 03:37:58;;;;;;;3.17;2.80;;;5.60;99.90;;;3.07;100.00;100582.22;4942507;28;86420;-60
2021/04/12 03:40:27;;;;;;;2.60;2.40;;;5.60;99.90;;;3.05;100.00;100577.03;4938014;28;92650;-60
2021/04/12 03:43:22;;;;;;;2.43;2.03;;;5.60;99.90;;;3.15;100.00;100595.75;4938809;28;82382;-60
2021/04/12 03:46:26;;;;;;;2.60;2.40;;;5.60;99.90;;;3.08;100.00;100595.34;4941641;28;87615;-61
2021/04/12 03:50:07;;;;;;;4.07;2.43;;;5.60;99.90;;;3.02;100.00;100598.38;4951589;28;89126;-60
2021/04/12 03:53:05;;;;;;;2.90;2.30;;;5.60;99.90;;;3.04;100.00;100603.56;4874020;28;73333;-61
2021/04/12 03:56:04;;;;;;;3.33;2.50;;;5.50;99.90;;;2.95;100.00;100606.81;4955025;28;67002;-60
2021/04/12 03:59:01;;;;;;;1.90;1.80;;;5.50;99.90;;;2.93;100.00;100614.84;4963361;28;57008;-62
2021/04/12 04:01:50;;;;;;;2.50;2.30;;;5.50;99.90;;;3.05;100.00;100614.03;4959260;28;55476;-62
2021/04/12 04:04:33;;;;;;;2.30;2.10;;;5.40;99.90;;;3.03;100.00;100615.94;4952943;28;70561;-60
2021/04/12 04:07:37;;;;;;;2.33;2.13;;;5.40;99.90;;;2.95;100.00;100615.59;4952559;28;81024;-61
2021/04/12 04:10:37;;;;;;;2.20;2.00;;;5.40;99.90;;;2.88;100.00;100612.50;4945169;28;74904;-60
2021/04/12 04:13:21;;;;;;;2.70;2.50;;;5.40;99.90;;;2.80;100.00;100614.81;4953432;28;75901;-60
2021/04/12 04:16:09;;;;;;;1.90;1.80;;;5.40;99.90;;;2.72;100.00;100627.66;4955673;28;70960;-62
2021/04/12 04:18:39;;;;;;;2.57;2.37;;;5.30;99.90;;;2.58;100.00;100621.59;4958552;28;65730;-60
2021/04/12 04:22:09;;;;;;;2.53;2.33;;;5.20;99.90;;;2.78;100.00;100639.63;4955924;28;59288;-60
2021/04/12 04:25:25;;;;;;;2.57;2.37;;;5.20;99.90;;;2.59;100.00;100642.63;4924313;28;87891;-61
2021/04/12 04:28:15;;;;;;;2.73;2.53;;;5.20;99.90;;;2.66;100.00;100646.56;4954160;28;59233;-61
2021/04/12 04:31:38;;;;;;;2.97;2.70;;;5.10;99.90;;;2.65;100.00;100641.38;4955695;28;55682;-60
2021/04/12 04:34:33;;;;;;;3.23;2.93;;;5.10;99.90;;;2.60;100.00;100643.50;4957226;28;72692;-60
2021/04/12 04:37:45;;;;;;;2.83;2.63;;;5.10;99.90;;;2.37;100.00;100658.13;4922598;28;63181;-62
2021/04/12 04:40:46;;;;;;;3.17;2.87;;;5.00;99.90;;;2.49;100.00;100660.00;4955076;28;67370;-61
2021/04/12 04:43:41;;;;;;;3.77;3.47;;;5.00;99.90;;;2.39;100.00;100670.31;4964281;28;49889;-60
2021/04/12 04:46:42;;;;;;;3.87;3.57;;;4.90;99.90;;;2.44;100.00;100673.50;4956178;28;66964;-60
2021/04/12 04:49:50;;;;;;;3.87;3.57;;;4.80;99.90;;;2.47;100.00;100677.75;4959992;28;60967;-59
2021/04/12 04:52:51;;;;;;;3.83;3.30;;;4.80;99.90;;;2.35;100.00;100689.09;4957446;28;61683;-62
2021/04/12 04:55:47;;;;;;;3.27;3.03;;;4.70;99.90;;;2.17;100.00;100686.66;4954012;28;60889;-60
2021/04/12 04:58:20;;;;;;;4.10;3.27;;;4.70;99.90;;;2.29;100.00;100692.09;4954793;28;61325;-62
2021/04/12 05:01:20;;;;;;;3.40;3.10;;;4.70;99.90;;;2.13;100.00;100694.84;4951220;28;65070;-62
2021/04/12 05:04:20;;;;;;;3.60;3.30;;;4.70;99.90;;;2.24;100.00;100710.88;4958308;28;61746;-60
2021/04/12 05:07:41;;;;;;;6.93;4.43;;;4.60;99.90;;;2.19;100.00;100720.88;4957693;28;59947;-59
2021/04/12 05:10:35;;;;;;;3.50;3.03;;;4.60;99.90;;;1.91;100.00;100723.50;4940933;28;64824;-61
2021/04/12 05:13:18;;;;;;;3.63;3.33;;;4.50;99.90;;;1.83;100.00;100737.16;4956295;28;60794;-62
2021/04/12 05:16:20;;;;;;;3.83;3.53;;;4.40;99.90;;;1.80;100.00;100748.75;4951163;28;67736;-63
2021/04/12 05:19:10;;;;;;;4.40;3.90;;;4.30;99.90;;;1.84;100.00;100751.19;4955196;28;56654;-64
2021/04/12 05:21:56;;;;;;;5.03;4.13;;;4.20;99.90;;;1.65;100.00;100754.06;4952774;28;68412;-62
2021/04/12 05:24:43;;;;;;;4.83;4.43;;;4.20;99.90;;;1.62;100.00;100770.91;4953659;28;61761;-62
2021/04/12 05:27:36;;;;;;;5.10;4.50;;;4.10;99.90;;;1.71;100.00;100769.53;4956314;28;69865;-60
2021/04/12 05:30:24;;;;;;;5.50;4.90;;;4.00;99.90;;;1.48;100.00;100777.94;4957262;28;64325;-60
2021/04/12 05:33:10;;;;;;;5.47;4.97;;;3.90;99.90;;;1.40;100.00;100789.78;4948396;28;66545;-60
2021/04/12 05:36:16;;;;;;;5.33;4.83;;;3.80;99.90;;;1.37;100.00;100789.09;4948755;28;74061;-60
2021/04/12 05:39:12;;;;;;;5.10;4.60;;;3.80;99.90;;;1.40;100.00;100784.50;4881630;28;75350;-58
2021/04/12 05:42:17;;;;;;;5.40;4.90;;;3.70;99.90;;;1.16;100.00;100785.88;4939689;28;67323;-59
2021/04/12 05:45:03;;;;;;;5.73;5.13;;;3.60;99.90;;;0.95;100.00;100789.72;4945473;28;69533;-60
2021/04/12 05:47:56;;;;;;;5.97;4.93;;;3.50;99.90;;;0.90;100.00;100797.03;4949813;28;71026;-60
2021/04/12 05:51:07;;;;;;;9.07;4.90;;;3.40;99.90;;;0.74;100.00;100804.09;4952285;28;79781;-59
2021/04/12 05:54:56;;;;;;;5.47;4.97;;;3.30;99.90;;;0.53;100.00;100803.44;4953652;28;60950;-60
2021/04/12 05:58:52;;;;;;;5.33;4.83;;;3.20;99.90;;;0.60;100.00;100808.31;4950091;28;60093;-60
2021/04/12 06:02:24;;;;;;;6.60;6.00;;;3.00;99.90;;;0.66;100.00;100817.66;4904892;28;71790;-59
2021/04/12 06:06:03;;;;;;;6.10;5.50;;;2.90;99.90;;;0.64;100.00;100830.91;4843822;28;60251;-60
2021/04/12 06:09:40;;;;;;;6.33;5.70;;;2.80;99.90;;;0.76;100.00;100842.56;4853331;28;71667;-59
2021/04/12 06:13:09;;;;;;;43.67;8.90;;;2.80;99.90;;;0.93;100.00;100846.94;4878790;28;67136;-60
2021/04/12 06:16:58;;;;;;;6.97;6.27;;;2.80;99.90;;;0.99;100.00;100842.16;4955545;28;62591;-60
2021/04/12 06:20:57;;;;;;;6.47;5.60;;;2.90;99.90;;;1.03;100.00;100845.50;4955244;28;53193;-60
2021/04/12 06:24:42;;;;;;;5.53;5.00;;;2.90;99.90;;;0.82;100.00;100842.25;4885530;28;50551;-59
2021/04/12 06:28:28;;;;;;;285.30;33.17;;;3.00;99.90;;;0.86;100.00;100859.59;4923795;28;53799;-60
2021/04/12 06:32:21;;;;;;;6.60;5.90;;;3.00;99.90;;;0.82;100.00;100873.00;4969488;28;46811;-58
2021/04/12 06:40:04;;;;;;;6.67;6.07;;;2.90;99.90;;;0.89;100.00;100883.13;4900826;28;54936;-59
2021/04/12 06:43:55;;;;;;;7.20;6.50;;;3.00;99.90;;;0.93;100.00;100897.84;4955141;28;63324;-59
2021/04/12 06:47:06;;;;;;;11.90;6.37;;;3.00;99.90;;;1.11;100.00;100895.16;4902711;28;49209;-60
2021/04/12 06:50:42;;;;;;;6.80;6.10;;;3.00;99.90;;;1.01;100.00;100903.53;4900313;28;71950;-58
2021/04/12 06:54:23;;;;;;;7.00;6.20;;;3.10;99.90;;;1.11;100.00;100909.19;4933804;28;61514;-60
2021/04/12 06:58:07;;;;;;;6.30;5.70;;;3.20;99.90;;;1.19;100.00;100920.16;4963541;28;57132;-60
2021/04/12 07:01:49;;;;;;;7.67;5.67;;;3.20;99.90;;;1.16;100.00;100912.41;4959864;28;64527;-59
2021/04/12 07:05:46;;;;;;;6.70;5.67;;;3.20;99.90;;;1.17;100.00;100923.81;4956349;28;62930;-59
2021/04/12 07:08:57;;;;;;;6.07;5.47;;;3.30;99.90;;;1.34;100.00;100916.69;4890515;28;69749;-59
2021/04/12 07:12:43;;;;;;;6.17;5.57;;;3.30;99.90;;;1.37;100.00;100921.78;4940564;28;55884;-59
2021/04/12 07:16:39;;;;;;;7.97;6.23;;;3.40;99.90;;;1.63;100.00;100927.41;4921416;28;58578;-59
2021/04/12 07:24:14;;;;;;;74.97;12.00;;;3.60;99.90;;;1.70;100.00;100950.72;4939706;28;61014;-59
2021/04/12 07:28:08;;;;;;;6.37;5.77;;;3.70;99.90;;;1.55;100.00;100940.16;4939835;28;59555;-59
2021/04/12 07:31:31;;;;;;;8.33;6.77;;;3.70;99.90;;;1.52;100.00;100957.00;4880150;28;58886;-58
2021/04/12 07:35:00;;;;;;;8.60;7.20;;;3.70;99.90;;;1.54;100.00;100956.94;4943048;28;61688;-59
2021/04/12 07:38:59;;;;;;;8.93;7.40;;;3.70;99.90;;;1.89;100.00;100962.88;4944224;28;53873;-57
2021/04/12 07:42:48;;;;;;;31.23;8.20;;;3.70;99.90;;;1.93;100.00;100965.25;4880091;28;57380;-58
2021/04/12 07:46:41;;;;;;;7.77;7.07;;;3.80;99.90;;;1.97;100.00;100966.81;4937397;28;53262;-58
2021/04/12 07:50:18;;;;;;;7.80;7.00;;;3.90;99.90;;;2.06;100.00;100968.06;4864965;28;62542;-58
2021/04/12 07:54:12;;;;;;;8.40;7.17;;;4.00;99.90;;;2.10;100.00;100975.69;4924846;28;55705;-57
2021/04/12 07:57:52;;;;;;;8.63;7.73;;;4.10;99.90;;;2.21;100.00;100974.25;4892071;28;57076;-59
2021/04/12 08:01:33;;;;;;;8.60;7.70;;;4.20;99.90;;;2.05;100.00;100971.63;4885817;28;56801;-56
2021/04/12 08:05:14;;;;;;;7.70;6.90;;;4.30;99.90;;;2.33;100.00;100978.81;4846433;28;56835;-59
2021/04/12 08:08:43;;;;;;;9.43;7.50;;;4.40;99.90;;;2.06;100.00;100979.47;4896600;28;58800;-58
2021/04/12 08:12:24;;;;;;;9.10;8.10;;;4.50;99.90;;;2.13;100.00;100978.16;4957176;28;60219;-59
2021/04/12 08:20:01;;;;;;;18.77;8.50;;;4.50;99.90;;;2.27;100.00;100993.22;4956719;28;59673;-59
2021/04/12 08:23:46;;;;;;;9.80;8.37;;;4.50;99.90;;;2.13;100.00;100993.16;4953100;28;62771;-58
2021/04/12 08:31:41;;;;;;;11.43;9.40;;;4.50;99.90;;;2.55;100.00;101008.34;4939023;28;58889;-59
2021/04/12 08:35:22;;;;;;;9.90;8.90;;;4.50;99.90;;;2.59;100.00;101015.16;4944162;28;56413;-59
2021/04/12 08:39:06;;;;;;;9.27;6.63;;;4.60;99.90;;;2.37;100.00;101030.50;4889439;28;51213;-59
2021/04/12 08:42:32;;;;;;;8.87;6.90;;;4.60;99.90;;;2.69;100.00;101029.50;4953930;28;62669;-58
2021/04/12 08:46:07;;;;;;;8.00;7.10;;;4.60;99.90;;;2.40;100.00;101025.91;4939517;28;59016;-60
2021/04/12 08:49:46;;;;;;;6.83;6.17;;;4.70;99.90;;;2.23;100.00;101015.44;4954431;28;58444;-59
2021/04/12 08:53:28;;;;;;;6.20;5.60;;;4.70;99.90;;;2.35;100.00;101025.31;4952361;28;72017;-58
2021/04/12 08:57:00;;;;;;;8.13;5.30;;;4.70;99.90;;;2.53;100.00;101045.41;4952734;28;64284;-58
2021/04/12 09:00:40;;;;;;;6.20;5.40;;;4.60;99.90;;;2.42;100.00;101039.88;4884032;28;68008;-58
2021/04/12 09:04:32;;;;;;;5.97;5.40;;;4.70;99.90;;;2.57;100.00;101039.94;4888368;28;56529;-58
2021/04/12 09:08:30;;;;;;;5.50;4.90;;;4.80;99.90;;;2.53;100.00;101029.56;4863518;28;51456;-58
2021/04/12 09:16:15;;;;;;;5.07;4.53;;;5.00;99.90;;;2.91;100.00;101044.94;4949741;28;73308;-58
2021/04/12 09:20:05;;;;;;;5.67;5.13;;;5.10;99.90;;;2.92;100.00;101040.53;4945858;28;59642;-59
2021/04/12 09:27:12;;;;;;;6.60;5.73;;;5.40;99.90;;;2.82;100.00;101050.78;4954830;28;55976;-58
2021/04/12 09:30:38;;;;;;;5.63;5.07;;;5.40;99.90;;;2.56;100.00;101046.16;4959299;28;47691;-59
2021/04/12 09:38:03;;;;;;;4.90;4.50;;;5.30;99.90;;;1.94;100.00;101054.06;4954859;28;52031;-59
2021/04/12 09:41:51;;;;;;;4.87;4.43;;;5.10;99.90;;;2.53;100.00;101060.41;4952416;28;57123;-59
2021/04/12 09:45:38;;;;;;;6.00;5.33;;;4.90;99.90;;;2.15;100.00;101066.06;4937509;28;52919;-59
2021/04/12 09:49:19;;;;;;;5.37;4.87;;;4.80;99.90;;;2.12;100.00;101065.38;4926088;28;48628;-59
2021/04/12 09:52:52;;;;;;;4.97;4.50;;;4.80;99.90;;;2.06;100.00;101077.13;4887657;28;68596;-58
2021/04/12 09:56:53;;;;;;;5.13;4.63;;;4.70;99.90;;;2.40;100.00;101084.03;4836512;28;53528;-59
2021/04/12 10:00:34;;;;;;;404.80;41.53;;;4.70;99.90;;;2.53;100.00;101076.25;4918718;28;53889;-58
2021/04/12 10:04:19;;;;;;;6.47;5.87;;;4.70;99.90;;;2.42;100.00;101094.50;4924955;28;45145;-59
2021/04/12 10:07:45;;;;;;;7.03;6.33;;;4.70;99.90;;;2.54;100.00;101101.72;4967327;28;39900;-59
2021/04/12 10:11:15;;;;;;;8.13;7.17;;;4.70;99.90;;;2.71;100.00;101104.28;4963921;28;48406;-60
2021/04/12 10:14:35;;;;;;;7.37;6.67;;;4.80;99.90;;;2.80;100.00;101108.16;4966005;28;48161;-59
2021/04/12 10:17:53;;;;;;;8.70;7.50;;;4.90;99.90;;;2.63;100.00;101116.19;4965564;28;49516;-59
2021/04/12 10:21:10;;;;;;;8.43;7.30;;;5.00;99.90;;;2.87;100.00;101115.63;4965395;28;47853;-59
2021/04/12 10:24:28;;;;;;;9.00;7.97;;;5.00;99.90;;;3.12;100.00;101106.28;4957128;28;56415;-59
2021/04/12 10:27:54;;;;;;;9.80;8.80;;;5.10;99.90;;;3.30;100.00;101107.84;4962817;28;50432;-59
2021/04/12 10:31:14;;;;;;;10.07;8.97;;;5.30;99.90;;;3.26;100.00;101111.59;4959723;28;53366;-60
2021/04/12 10:34:42;;;;;;;10.70;8.37;;;5.50;99.90;;;3.50;100.00;101111.91;4963947;28;49619;-59
2021/04/12 10:38:06;;;;;;;8.83;7.57;;;5.60;99.90;;;3.36;100.00;101107.44;4964399;28;61103;-57
2021/04/12 10:41:27;;;;;;;9.97;8.80;;;5.70;99.90;;;3.54;100.00;101110.78;4961246;28;55631;-58
2021/04/12 10:44:49;;;;;;;6.80;6.10;;;5.70;99.90;;;3.40;100.00;101111.63;4963489;28;52563;-58
2021/04/12 10:48:30;;;;;;;41.53;8.73;;;5.80;99.90;;;3.48;100.00;101111.16;4961886;28;49877;-59
2021/04/12 10:51:55;;;;;;;8.27;6.43;;;5.90;99.90;;;4.11;100.00;101114.25;4900040;28;56762;-57
2021/04/12 10:55:24;;;;;;;8.87;6.83;;;6.00;99.90;;;3.81;100.00;101111.75;4898812;28;51981;-58
2021/04/12 10:59:18;;;;;;;9.77;6.97;;;6.30;99.90;;;3.80;100.00;101109.19;4956684;28;60334;-59
2021/04/12 11:02:43;;;;;;;7.13;6.53;;;6.40;99.90;;;4.08;100.00;101122.41;4886741;28;58788;-57
2021/04/12 11:06:00;;;;;;;7.10;6.20;;;6.60;99.90;;;4.40;100.00;101109.78;4955834;28;57227;-59
2021/04/12 11:09:23;;;;;;;6.30;5.67;;;6.70;99.90;;;4.16;100.00;101106.03;4960838;28;64771;-59
2021/04/12 11:12:47;;;;;;;6.23;5.20;;;6.80;99.90;;;4.69;100.00;101106.09;4958348;28;64753;-59
2021/04/12 11:16:10;;;;;;;5.13;4.63;;;6.80;99.90;;;4.46;100.00;101109.34;4956670;28;52392;-61
2021/04/12 11:19:43;;;;;;;5.27;3.77;;;6.90;99.90;;;4.55;100.00;101111.44;4956794;28;60832;-59
2021/04/12 11:27:44;;;;;;;4.73;4.20;;;7.00;99.90;;;4.87;100.00;101103.16;4878923;28;51085;-59
2021/04/12 11:31:06;;;;;;;5.60;3.73;;;7.20;99.90;;;5.25;100.00;101098.78;4964820;28;43351;-59
2021/04/12 11:34:42;;;;;;;5.80;4.00;;;7.40;99.90;;;5.44;100.00;101105.50;4963158;28;48345;-59
2021/04/12 11:37:59;;;;;;;4.20;3.80;;;7.70;99.90;;;5.48;100.00;101104.31;4961277;28;43596;-59
2021/04/12 11:41:21;;;;;;;4.13;3.73;;;7.90;99.90;;;4.99;100.00;101107.66;4967194;28;46831;-59
2021/04/12 11:44:38;;;;;;;5.43;3.10;;;8.10;99.90;;;5.05;100.00;101113.41;4964703;28;49179;-60
2021/04/12 11:48:13;;;;;;;6.90;3.33;;;8.20;99.90;;;4.94;100.00;101110.63;4964308;28;52462;-58
2021/04/12 11:51:32;;;;;;;3.60;2.87;;;8.10;99.90;;;4.70;100.00;101122.81;4957499;28;54080;-59
2021/04/12 11:54:57;;;;;;;3.73;3.10;;;8.00;99.90;;;5.01;100.00;101116.34;4960307;28;50900;-57
2021/04/12 11:58:19;;;;;;;3.07;2.70;;;7.90;99.90;;;4.90;100.00;101121.53;4959731;28;50140;-59
2021/04/12 12:01:47;;;;;;;3.50;2.53;;;7.90;99.90;;;4.48;100.00;101130.47;4960518;28;57159;-59
2021/04/12 12:05:08;;;;;;;4.63;3.90;;;7.80;99.90;;;4.81;100.00;101128.28;4961228;28;53855;-59
2021/04/12 12:08:26;;;;;;;4.90;2.97;;;7.70;99.90;;;4.60;100.00;101138.47;4961283;28;47746;-59
2021/04/12 12:11:49;;;;;;;5.43;2.83;;;7.60;99.90;;;4.76;100.00;101141.00;4965083;28;43496;-59
2021/04/12 12:15:10;;;;;;;4.47;3.20;;;7.50;99.90;;;4.66;100.00;101143.41;4961933;28;52880;-58
2021/04/12 12:18:31;;;;;;;3.80;2.53;;;7.50;99.90;;;4.60;100.00;101143.78;4957741;28;46911;-59
2021/04/12 12:21:49;;;;;;;5.90;2.33;;;7.40;99.90;;;4.11;100.00;101147.84;4959153;28;47345;-59
2021/04/12 12:25:08;;;;;;;4.23;2.70;;;7.40;99.90;;;4.09;100.00;101153.22;4960705;28;47867;-58
2021/04/12 12:28:32;;;;;;;8.60;5.80;;;7.30;99.90;;;4.35;100.00;101154.25;4962844;28;45281;-57
2021/04/12 12:31:48;;;;;;;5.53;3.90;;;7.20;99.90;;;4.38;100.00;101151.41;4953875;28;51084;-58
2021/04/12 12:35:10;;;;;;;2.50;2.20;;;7.10;99.90;;;4.02;100.00;101162.53;4960150;28;51738;-58
2021/04/12 12:38:44;;;;;;;3.80;2.50;;;7.00;99.90;;;4.00;100.00;101168.84;4964244;28;47559;-58
2021/04/12 12:42:01;;;;;;;4.67;3.07;;;6.80;99.90;;;3.72;100.00;101173.19;4956938;28;49106;-60
2021/04/12 12:45:20;;;;;;;3.70;2.80;;;6.60;99.90;;;3.75;100.00;101173.00;4958124;28;58906;-61
2021/04/12 12:48:35;;;;;;;3.73;3.17;;;6.40;99.90;;;3.78;100.00;101178.13;4951625;28;49178;-61
2021/04/12 12:51:57;;;;;;;4.23;2.73;;;6.30;99.90;;;3.84;100.00;101180.38;4972563;28;52733;-61
2021/04/12 12:55:15;;;;;;;20.47;4.80;;;6.30;99.90;;;4.22;100.00;101174.50;4958650;28;52995;-61
2021/04/12 12:58:37;;;;;;;6.23;3.60;;;6.20;99.90;;;4.15;100.00;101182.00;4955623;28;60657;-60
2021/04/12 13:01:53;;;;;;;4.33;2.67;;;6.30;99.90;;;4.13;100.00;101185.69;4958975;28;51902;-60
2021/04/12 13:09:07;;;;;;;2.80;2.10;;;6.30;99.90;;;4.46;100.00;101180.06;4948391;28;43149;-60
2021/04/12 13:12:28;;;;;;;3.33;1.80;;;6.40;99.90;;;4.73;100.00;101183.59;4962909;28;43031;-59
2021/04/12 13:15:58;;;;;;;2.47;1.03;;;6.50;99.90;;;4.65;100.00;101177.94;4961755;28;47763;-60
2021/04/12 13:19:13;;;;;;;2.23;1.27;;;6.60;99.90;;;4.71;100.00;101177.53;4933502;28;48131;-60
2021/04/12 13:22:30;;;;;;;3.00;1.20;;;6.70;99.90;;;4.85;100.00;101174.00;4961491;28;51980;-60
2021/04/12 13:26:02;;;;;;;5.50;1.40;;;6.80;99.90;;;5.16;100.00;101170.19;4960007;28;46969;-58
2021/04/12 13:29:16;;;;;;;1.37;0.97;;;6.90;99.90;;;5.37;100.00;101164.28;4927859;28;63070;-60
2021/04/12 13:32:31;;;;;;;2.73;1.10;;;7.10;99.90;;;5.55;100.00;101164.00;4958871;28;50060;-60
2021/04/12 13:35:45;;;;;;;2.30;1.00;;;7.30;99.90;;;5.47;100.00;101161.00;4961832;28;50661;-57
2021/04/12 13:39:00;;;;;;;2.47;1.33;;;7.60;99.90;;;5.38;100.00;101163.34;4963492;28;51638;-59
2021/04/12 13:42:14;;;;;;;3.00;1.10;;;7.80;99.90;;;5.52;100.00;101170.38;4965194;28;52621;-59
2021/04/12 13:45:32;;;;;;;5.83;1.77;;;7.90;99.90;;;5.52;100.00;101173.03;4965747;28;51815;-58
2021/04/12 13:48:47;;;;;;;2.67;1.23;;;8.00;99.90;;;5.28;100.00;101174.69;4967188;28;49294;-57
2021/04/12 13:52:03;;;;;;;3.77;1.30;;;8.10;99.90;;;5.41;100.00;101171.09;4967497;28;45714;-57
2021/04/12 13:55:27;;;;;;;3.10;1.73;;;8.10;99.90;;;5.29;100.00;101171.06;4962152;28;50524;-57
2021/04/12 13:58:45;;;;;;;5.67;2.00;;;8.10;99.90;;;5.35;100.00;101176.81;4963943;28;48090;-59
2021/04/12 14:02:09;;;;;;;2.40;1.13;;;8.10;99.90;;;5.64;100.00;101171.34;4965631;28;43741;-58
2021/04/12 14:05:26;;;;;;;2.53;1.10;;;8.20;99.90;;;5.76;100.00;101174.00;4965071;28;49235;-56
2021/04/12 14:08:44;;;;;;;2.20;1.20;;;8.30;99.90;;;6.02;100.00;101180.19;4964028;28;48149;-58
2021/04/12 14:12:23;;;;;;;6.33;1.63;;;8.50;99.90;;;6.52;100.00;101177.56;4966413;28;47894;-58
2021/04/12 14:15:53;;;;;;;5.53;2.03;;;8.70;99.90;;;6.13;100.00;101177.63;4896919;28;46472;-57
2021/04/12 14:19:07;;;;;;;3.47;1.53;;;9.00;99.90;;;6.35;100.00;101171.63;4956058;28;45169;-58
2021/04/12 14:26:02;;;;;;;2.63;1.33;;;9.30;99.90;;;5.99;100.00;101185.72;4964661;28;43896;-57
2021/04/12 14:32:56;;;;;;;3.83;1.40;;;9.20;99.90;;;5.84;100.00;101188.53;4964545;28;49598;-58
2021/04/12 14:36:17;;;;;;;3.93;1.60;;;9.10;99.90;;;4.67;100.00;101197.28;4966481;28;44434;-56
2021/04/12 14:39:46;;;;;;;6.20;1.90;;;8.80;99.90;;;4.68;100.00;101204.28;4964617;28;48103;-58
2021/04/12 14:43:03;;;;;;;3.40;1.73;;;8.30;99.90;;;4.98;100.00;101202.28;4966906;28;52518;-57
2021/04/12 14:46:25;;;;;;;4.57;2.13;;;7.90;99.90;;;5.13;100.00;101205.72;4962046;28;52633;-57
2021/04/12 14:50:12;;;;;;;3.30;1.70;;;7.80;99.90;;;5.19;100.00;101210.66;4965030;28;46870;-58
2021/04/12 14:53:27;;;;;;;3.60;1.47;;;7.70;99.90;;;5.66;100.00;101195.97;4920089;28;52782;-59
2021/04/12 14:56:44;;;;;;;4.93;1.53;;;7.70;99.90;;;5.48;100.00;101195.41;4903146;28;48890;-58
2021/04/12 15:00:16;;;;;;;3.50;1.90;;;7.80;99.90;;;5.85;100.00;101195.56;4960391;28;53470;-59